»·PEaware :: N8408E KSMX-KBFL

N8408E :: KSMX-KBFL

FLIGHT INFORMATION

Flight Status: Arrived
Operator: Privately registered:
United States
More flights under this callsign
Pilot: John H. (22960)
Aircraft: CESSNA 172 SKYHAWK
(C172)
More flights by this aircraft type
Origin: KSMX Santa Maria Pub/Capt Hancock
United States
Destination: KBFL Meadows
United States
More flights between these airports :: More routes between these airports
Route: +DIRECT
File this flight plan on PilotEdge
Remarks:
Altitude:
(Current/Filed)
7,500ft
Speed:
(Current/Filed)
115kts
Departed: 02-Feb-19 05:03 PM
Arrived: 02-Feb-19 05:50 PM
Distance/Time
Traveled:
112nm/0:47
Distance/Time
To Go:
Arrived

Flight Plot

Page will automatically refresh every two minutes.


Map Options




Map Legend


Flown Route
Filed Route
Departure Airport
Arrival Airport
Navaid (VOR, NDB)
Fix

Horizontal Profiles

Position Reports

Time Latitude Longitude Heading Altitude Ground
Speed
02-Feb-19 16:54 34.895845 -120.445232 314 265ft 0kts
02-Feb-19 16:55 34.895845 -120.445232 314 265ft 0kts
02-Feb-19 16:56 34.895845 -120.445232 314 265ft 0kts
02-Feb-19 16:58 34.895847 -120.445234 311 265ft 0kts
02-Feb-19 16:59 34.894453 -120.445313 165 265ft 10kts
02-Feb-19 17:00 34.893573 -120.445209 179 265ft 0kts
02-Feb-19 17:01 34.893573 -120.445209 179 265ft 0kts
02-Feb-19 17:02 34.897015 -120.450874 315 324ft 81kts
02-Feb-19 17:03 34.910276 -120.447408 76 1330ft 74kts
02-Feb-19 17:04 34.915210 -120.423784 71 2252ft 70kts
02-Feb-19 17:05 34.922062 -120.400869 65 3125ft 73kts
02-Feb-19 17:06 34.930552 -120.378428 65 4007ft 74kts
02-Feb-19 17:07 34.939304 -120.355635 63 4850ft 74kts
02-Feb-19 17:08 34.948076 -120.332547 65 5633ft 77kts
02-Feb-19 17:09 34.957349 -120.309279 64 6401ft 76kts
02-Feb-19 17:10 34.966607 -120.285861 63 7111ft 77kts
02-Feb-19 17:11 34.976190 -120.261599 63 7694ft 90kts
02-Feb-19 17:12 34.989678 -120.229441 59 7787ft 111kts
02-Feb-19 17:13 35.002825 -120.195165 66 7807ft 111kts
02-Feb-19 17:14 35.014650 -120.160301 65 7825ft 111kts
02-Feb-19 17:15 35.027957 -120.125473 65 7808ft 112kts
02-Feb-19 17:16 35.041354 -120.090883 65 7802ft 112kts
02-Feb-19 17:17 35.054628 -120.056636 64 7805ft 112kts
02-Feb-19 17:18 35.067815 -120.021821 69 7797ft 112kts
02-Feb-19 17:19 35.080915 -119.987168 63 7791ft 113kts
02-Feb-19 17:20 35.094150 -119.952397 65 7803ft 112kts
02-Feb-19 17:21 35.107415 -119.917648 64 7803ft 112kts
02-Feb-19 17:22 35.120815 -119.883109 64 7794ft 112kts
02-Feb-19 17:23 35.133547 -119.848107 65 7794ft 112kts
02-Feb-19 17:24 35.146687 -119.813320 64 7806ft 111kts
02-Feb-19 17:25 35.160125 -119.778777 65 7803ft 112kts
02-Feb-19 17:26 35.173463 -119.744221 65 7806ft 112kts
02-Feb-19 17:27 35.185661 -119.709087 64 7813ft 111kts
02-Feb-19 17:28 35.198724 -119.674339 66 7811ft 112kts
02-Feb-19 17:29 35.212185 -119.639741 64 7816ft 112kts
02-Feb-19 17:30 35.225365 -119.604970 64 7818ft 112kts
02-Feb-19 17:31 35.238795 -119.570458 63 7801ft 109kts
02-Feb-19 17:32 35.251433 -119.535402 70 7175ft 114kts
02-Feb-19 17:33 35.264170 -119.500676 64 6640ft 113kts
02-Feb-19 17:34 35.278070 -119.467224 60 6162ft 110kts
02-Feb-19 17:35 35.291630 -119.433620 65 5659ft 110kts
02-Feb-19 17:36 35.304403 -119.399672 64 5186ft 109kts
02-Feb-19 17:37 35.316993 -119.366104 64 4744ft 108kts
02-Feb-19 17:38 35.329566 -119.332677 65 4314ft 107kts
02-Feb-19 17:39 35.342034 -119.299558 64 3902ft 106kts
02-Feb-19 17:40 35.354471 -119.266497 65 3506ft 106kts
02-Feb-19 17:41 35.366809 -119.233793 65 3124ft 105kts
02-Feb-19 17:42 35.379249 -119.201242 64 2760ft 105kts
02-Feb-19 17:43 35.392243 -119.169512 64 2429ft 103kts
02-Feb-19 17:44 35.406073 -119.138373 60 2092ft 103kts
02-Feb-19 17:45 35.419426 -119.107209 65 1812ft 99kts
02-Feb-19 17:46 35.427462 -119.075588 100 1627ft 94kts
02-Feb-19 17:47 35.415211 -119.050640 71 1148ft 75kts
02-Feb-19 17:48 35.430732 -119.052446 312 537ft 59kts
02-Feb-19 17:49 35.436274 -119.057802 45 492ft 0kts
02-Feb-19 17:50 35.433566 -119.053609 130 493ft 26kts
02-Feb-19 18:03 34.196338 -118.367565 358 721ft 0kts

Navigation Log

Ident Type
Flight plan parsing failed, navigation log unavailable